createdAt,value
2022-10-16T00:03:03.436Z,23.00
2022-10-16T00:08:10.336Z,20.30
2022-10-16T00:13:18.022Z,21.70
2022-10-16T00:18:23.933Z,18.50
2022-10-16T00:23:29.808Z,19.20
2022-10-16T00:28:36.692Z,21.90
2022-10-16T00:33:43.633Z,22.00
2022-10-16T00:38:51.127Z,19.80
2022-10-16T00:43:58.618Z,17.00
2022-10-16T00:49:08.224Z,19.60
2022-10-16T00:54:17.474Z,24.70
2022-10-16T00:59:27.489Z,24.80
2022-10-16T01:04:37.984Z,22.50
2022-10-16T01:09:53.637Z,22.10
2022-10-16T01:15:05.986Z,24.70
2022-10-16T01:20:24.604Z,22.70
2022-10-16T01:25:51.038Z,24.50
2022-10-16T01:31:00.669Z,24.10
2022-10-16T01:36:12.760Z,23.80
2022-10-16T01:41:23.763Z,22.30
2022-10-16T01:46:31.867Z,25.20
2022-10-16T01:51:38.983Z,21.80
2022-10-16T01:56:46.703Z,22.00
2022-10-16T02:01:57.583Z,24.80
2022-10-16T02:07:03.889Z,25.70
2022-10-16T02:12:16.951Z,22.40
2022-10-16T02:17:23.894Z,22.50
2022-10-16T02:22:34.689Z,26.70
2022-10-16T02:27:46.634Z,22.30
2022-10-16T02:32:54.627Z,24.40
2022-10-16T02:38:02.090Z,25.30
2022-10-16T02:43:10.086Z,29.60
2022-10-16T02:48:16.142Z,23.80
2022-10-16T02:53:22.563Z,25.50
2022-10-16T02:58:28.335Z,24.60
2022-10-16T03:03:34.495Z,25.30
2022-10-16T03:08:40.579Z,29.20
2022-10-16T03:13:46.576Z,25.00
2022-10-16T03:18:52.410Z,25.40
2022-10-16T03:23:58.225Z,27.70
2022-10-16T03:29:04.620Z,25.50
2022-10-16T03:34:10.645Z,28.20
2022-10-16T03:39:16.550Z,23.80
2022-10-16T03:44:22.877Z,26.60
2022-10-16T03:49:28.857Z,27.10
2022-10-16T03:54:34.799Z,23.70
2022-10-16T03:59:40.837Z,26.30
2022-10-16T04:04:46.866Z,25.20
2022-10-16T04:09:53.259Z,23.30
2022-10-16T04:14:59.116Z,25.70
2022-10-16T04:20:06.062Z,26.20
2022-10-16T04:25:12.824Z,24.70
2022-10-16T04:30:19.001Z,24.20
2022-10-16T04:35:24.979Z,25.30
2022-10-16T04:40:33.852Z,24.60
2022-10-16T04:45:39.762Z,25.00
2022-10-16T04:50:45.811Z,25.10
2022-10-16T04:55:52.028Z,21.60
2022-10-16T05:00:57.946Z,23.50
2022-10-16T05:06:06.022Z,24.60
2022-10-16T05:11:12.175Z,23.90
2022-10-16T05:16:18.449Z,26.10
2022-10-16T05:21:24.730Z,31.00
2022-10-16T05:26:30.875Z,24.50
2022-10-16T05:31:36.741Z,26.50
2022-10-16T05:36:42.862Z,24.20
2022-10-16T05:41:50.479Z,22.50
2022-10-16T05:46:56.152Z,21.30
2022-10-16T05:52:02.137Z,22.20
2022-10-16T05:57:08.058Z,21.40
2022-10-16T06:02:15.602Z,26.00
2022-10-16T06:07:21.928Z,21.90
2022-10-16T06:12:29.572Z,23.80
2022-10-16T06:17:35.408Z,19.80
2022-10-16T06:22:41.469Z,17.70
2022-10-16T06:27:47.465Z,18.70
2022-10-16T06:32:53.250Z,16.80
2022-10-16T06:37:59.138Z,18.30
2022-10-16T06:43:05.036Z,12.20
2022-10-16T06:48:11.142Z,15.70
2022-10-16T06:53:16.918Z,18.10
2022-10-16T06:58:22.918Z,12.90
2022-10-16T07:03:28.622Z,14.50
2022-10-16T07:08:35.479Z,18.00
2022-10-16T07:13:43.249Z,15.80
2022-10-16T07:18:50.454Z,12.70
2022-10-16T07:23:58.964Z,16.10
2022-10-16T07:29:05.130Z,14.60
2022-10-16T07:34:12.191Z,17.50
2022-10-16T07:39:18.261Z,15.90
2022-10-16T07:44:24.551Z,15.80
2022-10-16T07:49:30.440Z,17.00
2022-10-16T07:54:36.320Z,14.80
2022-10-16T07:59:42.277Z,13.90
2022-10-16T08:04:49.384Z,12.70
2022-10-16T08:09:57.493Z,12.20
2022-10-16T08:15:03.723Z,12.50
2022-10-16T08:20:11.848Z,16.90
2022-10-16T08:25:17.746Z,13.60
2022-10-16T08:30:25.124Z,14.70
2022-10-16T08:35:30.925Z,14.30
2022-10-16T08:40:38.789Z,15.10
2022-10-16T08:45:58.872Z,12.20
2022-10-16T08:51:06.913Z,10.40
2022-10-16T08:56:12.970Z,12.70
2022-10-16T09:01:20.941Z,13.40
2022-10-16T09:06:46.895Z,11.90
2022-10-16T09:11:59.622Z,11.00
2022-10-16T09:17:19.036Z,11.40
2022-10-16T09:22:30.175Z,12.50
2022-10-16T09:27:36.289Z,12.80
2022-10-16T09:32:44.295Z,14.70
2022-10-16T09:37:55.391Z,11.50
2022-10-16T09:43:13.548Z,16.30
2022-10-16T09:48:22.530Z,10.50
2022-10-16T09:53:43.535Z,12.00
2022-10-16T09:58:54.470Z,12.10
2022-10-16T10:04:02.254Z,12.00
2022-10-16T10:09:19.898Z,14.90
2022-10-16T10:14:30.025Z,10.40
2022-10-16T10:19:44.146Z,13.90
2022-10-16T10:25:01.352Z,12.50
2022-10-16T10:35:37.982Z,14.70
2022-10-16T10:40:52.230Z,11.20
2022-10-16T10:46:03.926Z,12.60
2022-10-16T10:51:17.049Z,14.70
2022-10-16T10:56:40.760Z,11.10
2022-10-16T11:01:55.920Z,13.60
2022-10-16T11:07:06.085Z,15.40
2022-10-16T11:12:18.458Z,15.40
2022-10-16T11:17:30.234Z,15.10
2022-10-16T11:22:41.325Z,10.40
2022-10-16T11:27:51.975Z,10.40
2022-10-16T11:33:13.337Z,11.90
2022-10-16T11:38:28.296Z,10.40
2022-10-16T11:43:39.564Z,13.20
2022-10-16T11:48:51.019Z,9.10
2022-10-16T11:54:03.132Z,11.50
2022-10-16T11:59:14.601Z,9.20
2022-10-16T12:04:32.497Z,7.80
2022-10-16T12:09:41.211Z,12.10
2022-10-16T12:15:11.447Z,9.90
2022-10-16T12:20:28.799Z,11.10
2022-10-16T12:25:37.385Z,9.20
2022-10-16T12:30:52.878Z,13.40
2022-10-16T12:36:01.343Z,10.20
2022-10-16T12:41:09.549Z,10.40
2022-10-16T12:46:38.073Z,10.40
2022-10-16T12:51:44.933Z,11.90
2022-10-16T12:57:06.890Z,12.00
2022-10-16T13:02:46.118Z,11.30
2022-10-16T13:08:07.502Z,14.90
2022-10-16T13:13:36.198Z,12.80
2022-10-16T13:18:52.229Z,12.60
2022-10-16T13:24:08.334Z,26.50
2022-10-16T13:29:15.570Z,23.60
2022-10-16T13:34:23.637Z,12.30
2022-10-16T13:39:31.023Z,12.30
2022-10-16T13:44:44.071Z,15.70
2022-10-16T13:50:02.261Z,18.70
2022-10-16T13:55:13.907Z,22.50
2022-10-16T14:00:26.096Z,33.30
2022-10-16T14:05:33.300Z,35.90
2022-10-16T14:10:39.987Z,22.70
2022-10-16T14:15:51.127Z,16.40
2022-10-16T14:21:03.878Z,21.30
2022-10-16T14:38:44.833Z,36.90
2022-10-16T14:43:54.774Z,59.70
2022-10-16T14:49:06.040Z,57.70
2022-10-16T14:54:12.631Z,64.00
2022-10-16T14:59:35.092Z,72.10
2022-10-16T15:04:41.401Z,103.40
2022-10-16T15:09:49.295Z,88.10
2022-10-16T15:14:56.412Z,28.10
2022-10-16T15:20:02.352Z,33.30
2022-10-16T15:25:26.506Z,50.60
2022-10-16T15:30:32.837Z,77.90
2022-10-16T15:35:38.827Z,43.10
2022-10-16T15:40:48.761Z,46.90
2022-10-16T15:46:02.562Z,54.50
2022-10-16T15:51:10.780Z,118.30
2022-10-16T15:56:17.297Z,59.70
2022-10-16T16:01:23.254Z,89.10
2022-10-16T16:06:29.706Z,104.80
2022-10-16T16:11:38.717Z,54.90
2022-10-16T16:16:44.982Z,39.00
2022-10-16T16:21:51.267Z,38.30
2022-10-16T16:26:57.501Z,36.00
2022-10-16T16:32:03.545Z,42.40
2022-10-16T16:37:09.456Z,90.00
2022-10-16T16:42:15.359Z,94.90
2022-10-16T16:47:21.253Z,47.10
2022-10-16T16:52:29.951Z,25.80
2022-10-16T16:57:35.779Z,18.40
2022-10-16T17:02:44.289Z,15.50
2022-10-16T17:07:50.190Z,17.90
2022-10-16T17:12:56.123Z,21.10
2022-10-16T17:18:02.119Z,19.10
2022-10-16T17:23:08.717Z,17.00
2022-10-16T17:28:15.195Z,16.50
2022-10-16T17:33:21.038Z,20.80
2022-10-16T17:38:27.134Z,20.60
2022-10-16T17:43:33.198Z,20.00
2022-10-16T17:48:45.439Z,20.10
2022-10-16T17:53:53.038Z,21.10
2022-10-16T17:59:01.920Z,22.90
2022-10-16T18:04:10.556Z,22.90
2022-10-16T18:09:18.814Z,25.90
2022-10-16T18:14:24.637Z,29.60
2022-10-16T18:19:30.584Z,29.10
2022-10-16T18:24:38.883Z,24.40
2022-10-16T18:30:03.397Z,24.00
2022-10-16T18:45:27.698Z,22.40
2022-10-16T18:50:33.884Z,23.50
2022-10-16T18:55:39.941Z,26.60
2022-10-16T19:00:45.762Z,25.90
2022-10-16T19:05:52.142Z,21.30
2022-10-16T19:11:01.730Z,22.60
2022-10-16T19:16:20.482Z,27.20
2022-10-16T19:21:28.308Z,23.80
2022-10-16T19:26:38.073Z,22.60
2022-10-16T19:31:47.348Z,23.30
2022-10-16T19:36:54.709Z,22.90
2022-10-16T19:42:00.694Z,21.70
2022-10-16T19:47:06.843Z,23.10
2022-10-16T19:52:14.274Z,21.00
2022-10-16T19:57:20.203Z,24.10
2022-10-16T20:02:26.432Z,26.10
2022-10-16T20:07:34.074Z,22.00
2022-10-16T20:12:40.989Z,24.20
2022-10-16T20:17:47.102Z,23.30
2022-10-16T20:22:52.978Z,23.10
2022-10-16T20:27:58.846Z,26.00
2022-10-16T20:33:08.245Z,22.10
2022-10-16T20:38:15.826Z,27.90
2022-10-16T20:43:21.838Z,26.20
2022-10-16T20:48:27.883Z,22.70
2022-10-16T20:53:36.054Z,23.00
2022-10-16T20:58:45.344Z,21.90
2022-10-16T21:03:54.220Z,27.20
2022-10-16T21:09:03.156Z,26.20
2022-10-16T21:14:10.233Z,22.60
2022-10-16T21:19:16.118Z,20.90
2022-10-16T21:24:21.974Z,20.80
2022-10-16T21:29:27.777Z,18.10
2022-10-16T21:34:34.626Z,23.40
2022-10-16T21:39:40.858Z,20.40
2022-10-16T21:44:47.314Z,19.10
2022-10-16T21:49:53.242Z,26.70
2022-10-16T21:54:59.090Z,28.30
2022-10-16T22:00:09.012Z,28.40
2022-10-16T22:05:15.710Z,29.90
2022-10-16T22:10:21.588Z,25.70
2022-10-16T22:15:27.398Z,23.90
2022-10-16T22:20:33.248Z,24.70
2022-10-16T22:25:39.366Z,30.60
2022-10-16T22:30:46.250Z,29.30
2022-10-16T22:35:52.392Z,26.70
2022-10-16T22:41:03.224Z,23.70
2022-10-16T22:46:11.255Z,29.00
2022-10-16T22:51:17.776Z,26.90
2022-10-16T22:56:23.919Z,28.00
2022-10-16T23:01:33.099Z,23.60
2022-10-16T23:06:39.296Z,25.80
2022-10-16T23:11:45.155Z,30.80
2022-10-16T23:16:50.937Z,27.00
2022-10-16T23:21:56.794Z,25.40
2022-10-16T23:27:02.775Z,25.80
2022-10-16T23:32:08.755Z,23.30
2022-10-16T23:37:15.186Z,27.10
2022-10-16T23:42:21.567Z,26.00
2022-10-16T23:47:27.767Z,22.60
2022-10-16T23:52:34.071Z,24.30
2022-10-16T23:57:40.139Z,24.20
